Time;durP1;ratioP1;P1;durP2;ratioP2;P2;SDS_P1;SDS_P2;PMS_P1;PMS_P2;Temp;Humidity;BMP_temperature;BMP_pressure;BME280_temperature;BME280_humidity;BME280_pressure;Samples;Min_cycle;Max_cycle;Signal;HPM_P1;HPM_P2
2023/05/22 00:00:30;;;;;;;7.30;4.50;;;;;;;16.36;100.00;100845.13;108188;1251;65145;-95
2023/05/22 00:03:02;;;;;;;7.40;4.70;;;;;;;16.39;100.00;100846.13;108131;1251;71746;-96
2023/05/22 00:05:33;;;;;;;7.50;4.10;;;;;;;16.43;100.00;100846.00;107710;1251;62620;-96
2023/05/22 00:08:10;;;;;;;5.00;3.50;;;;;;;16.44;100.00;100844.12;108084;1247;61232;-93
2023/05/22 00:10:53;;;;;;;4.80;4.30;;;;;;;16.43;100.00;100843.33;107913;1256;74930;-95
2023/05/22 00:13:22;;;;;;;6.30;4.60;;;;;;;16.43;100.00;100845.12;108742;1256;64734;-95
2023/05/22 00:15:54;;;;;;;6.70;3.90;;;;;;;16.40;100.00;100844.08;108632;1250;75234;31
2023/05/22 00:18:24;;;;;;;4.70;3.60;;;;;;;16.37;100.00;100844.16;109319;1259;63108;-96
2023/05/22 00:20:53;;;;;;;4.90;4.10;;;;;;;16.33;100.00;100843.98;109358;1256;61198;-96
2023/05/22 00:23:22;;;;;;;14.30;4.50;;;;;;;16.29;100.00;100846.23;109441;1257;74415;-96
2023/05/22 00:25:50;;;;;;;6.30;3.70;;;;;;;16.22;100.00;100838.83;108783;1256;65064;-94
2023/05/22 00:28:21;;;;;;;6.00;4.10;;;;;;;16.21;100.00;100841.97;107756;1259;74583;-96
2023/05/22 00:30:51;;;;;;;6.60;4.10;;;;;;;16.18;100.00;100839.92;107803;1264;63235;-95
2023/05/22 00:33:27;;;;;;;5.00;3.60;;;;;;;16.14;100.00;100839.49;108436;1259;62605;-95
2023/05/22 00:36:12;;;;;;;5.40;3.50;;;;;;;16.10;100.00;100840.02;108555;1259;75128;-95
2023/05/22 00:39:10;;;;;;;4.30;3.70;;;;;;;16.05;100.00;100837.58;108272;1259;62530;-94
2023/05/22 00:41:39;;;;;;;4.90;4.20;;;;;;;16.00;100.00;100837.42;107987;1259;73715;-92
2023/05/22 00:44:07;;;;;;;6.30;3.70;;;;;;;15.96;100.00;100840.23;107612;1263;62717;-95
2023/05/22 00:46:39;;;;;;;10.10;4.70;;;;;;;15.94;100.00;100837.33;106997;1260;61061;-91
2023/05/22 00:49:10;;;;;;;4.10;3.80;;;;;;;15.89;100.00;100837.73;106634;1266;73932;-93
2023/05/22 00:51:38;;;;;;;4.20;3.70;;;;;;;15.86;100.00;100836.27;106964;1266;64872;-94
2023/05/22 00:54:07;;;;;;;5.80;3.50;;;;;;;15.85;100.00;100838.09;108847;1259;73616;-93
2023/05/22 00:56:35;;;;;;;4.30;3.90;;;;;;;15.85;100.00;100838.46;106711;1267;62801;-95
2023/05/22 00:59:04;;;;;;;3.60;3.40;;;;;;;15.86;100.00;100838.70;109014;1257;61367;-93
2023/05/22 01:01:37;;;;;;;5.30;4.30;;;;;;;15.88;100.00;100839.27;109188;1260;74843;-93
2023/05/22 01:04:06;;;;;;;5.30;3.60;;;;;;;15.88;100.00;100835.52;108499;1269;63200;-92
2023/05/22 01:06:34;;;;;;;5.20;3.70;;;;;;;15.88;100.00;100835.00;107931;1276;75322;-94
2023/05/22 01:09:03;;;;;;;7.60;4.10;;;;;;;15.86;100.00;100834.83;107829;1281;62927;-92
2023/05/22 01:15:40;;;;;;;6.30;4.90;;;;;;;15.72;100.00;100834.45;105801;1291;599771;-94
2023/05/22 01:18:23;;;;;;;6.20;4.60;;;;;;;15.67;100.00;100837.36;105942;1269;62898;-94
2023/05/22 01:20:57;;;;;;;4.70;4.30;;;;;;;15.63;100.00;100839.02;106280;1261;61214;-94
2023/05/22 01:23:44;;;;;;;5.90;4.00;;;;;;;15.59;100.00;100840.23;106263;1265;73572;-93
2023/05/22 01:26:24;;;;;;;5.70;3.90;;;;;;;15.60;100.00;100839.86;106266;1260;63110;-95
2023/05/22 01:29:06;;;;;;;6.10;4.00;;;;;;;15.59;100.00;100833.95;105795;1259;834393;-95
2023/05/22 01:31:35;;;;;;;4.50;3.60;;;;;;;15.59;100.00;100835.47;106449;1259;63712;-95
2023/05/22 01:34:03;;;;;;;7.90;3.90;;;;;;;15.58;100.00;100837.67;106828;1257;61226;-93
2023/05/22 01:36:37;;;;;;;5.80;3.00;;;;;;;15.57;100.00;100833.17;108800;1257;72819;-94
2023/05/22 01:39:05;;;;;;;4.90;3.60;;;;;;;15.57;100.00;100827.87;106657;1259;64899;-96
2023/05/22 01:41:33;;;;;;;4.30;3.80;;;;;;;15.58;100.00;100830.66;107787;1257;73573;-95
2023/05/22 01:44:01;;;;;;;3.50;3.30;;;;;;;15.57;100.00;100829.47;108132;1259;64175;-94
2023/05/22 01:46:29;;;;;;;4.80;3.60;;;;;;;15.54;100.00;100830.75;109266;1257;61160;-95
2023/05/22 01:48:58;;;;;;;8.90;3.90;;;;;;;15.49;100.00;100831.86;109343;1253;75275;-96
2023/05/22 01:51:38;;;;;;;4.80;3.40;;;;;;;15.44;100.00;100836.27;109437;1253;64718;-95
2023/05/22 01:54:17;;;;;;;5.40;3.50;;;;;;;15.37;100.00;100835.59;109648;1257;73295;-93
2023/05/22 01:56:50;;;;;;;4.90;3.70;;;;;;;15.30;100.00;100835.93;107827;1254;62704;-93
2023/05/22 01:59:29;;;;;;;5.40;3.50;;;;;;;15.28;100.00;100836.85;109618;1251;60893;-94
2023/05/22 02:02:00;;;;;;;5.90;3.70;;;;;;;15.25;100.00;100835.31;109364;1251;74000;-93
2023/05/22 02:04:28;;;;;;;4.10;3.70;;;;;;;15.27;100.00;100835.48;109335;1251;64638;-94
2023/05/22 02:06:59;;;;;;;6.10;3.50;;;;;;;15.26;100.00;100832.73;108415;1253;73457;-94
2023/05/22 02:09:29;;;;;;;5.00;3.90;;;;;;;15.27;100.00;100834.55;107111;1253;63265;-95
2023/05/22 02:11:58;;;;;;;7.50;4.00;;;;;;;15.25;100.00;100832.27;107123;1251;61019;-93
2023/05/22 02:14:27;;;;;;;5.20;4.30;;;;;;;15.19;100.00;100831.69;107870;1251;74347;-93
2023/05/22 02:16:56;;;;;;;4.50;4.00;;;;;;;15.19;100.00;100832.42;108787;1254;65635;-91
2023/05/22 02:19:25;;;;;;;5.40;4.20;;;;;;;15.22;100.00;100831.64;108562;1255;73562;-93
2023/05/22 02:21:55;;;;;;;4.70;4.20;;;;;;;15.26;100.00;100827.95;107133;1255;63140;-93
2023/05/22 02:42:05;;;;;;;3.50;3.20;;;;;;;15.75;100.00;100823.86;104516;1282;613112;-94
2023/05/22 02:44:33;;;;;;;3.60;3.30;;;;;;;15.86;100.00;100826.89;106153;1266;114940;-92
2023/05/22 02:47:00;;;;;;;4.60;3.20;;;;;;;15.87;100.00;100830.33;106106;1262;61147;-90
2023/05/22 02:49:28;;;;;;;3.70;3.40;;;;;;;15.88;100.00;100829.42;106122;1257;72854;-92
2023/05/22 02:51:55;;;;;;;4.50;3.60;;;;;;;15.87;100.00;100832.07;106726;1253;63958;-90
2023/05/22 02:54:22;;;;;;;4.30;3.50;;;;;;;15.88;100.00;100835.16;106584;1254;73627;-90
2023/05/22 02:56:50;;;;;;;7.00;3.90;;;;;;;15.90;100.00;100837.48;107464;1255;62787;-89
2023/05/22 02:59:17;;;;;;;6.30;4.20;;;;;;;15.93;100.00;100839.01;108227;1253;61203;-92
2023/05/22 03:01:45;;;;;;;7.60;3.90;;;;;;;15.97;100.00;100838.02;106167;1257;73389;-93
2023/05/22 03:04:13;;;;;;;5.50;4.50;;;;;;;16.00;100.00;100838.00;106636;1253;65690;-94
2023/05/22 03:06:40;;;;;;;4.10;3.70;;;;;;;16.02;100.00;100837.24;106586;1254;74364;-93
2023/05/22 03:09:08;;;;;;;3.40;3.10;;;;;;;16.05;100.00;100840.56;108936;1253;64014;-92
2023/05/22 03:11:35;;;;;;;12.00;3.70;;;;;;;16.09;100.00;100842.89;106499;1253;61215;-91
2023/05/22 03:14:02;;;;;;;5.80;3.40;;;;;;;16.13;100.00;100845.56;106613;1253;74626;-92
2023/05/22 03:16:33;;;;;;;4.00;3.70;;;;;;;16.17;100.00;100847.16;106614;1253;66050;-93
2023/05/22 03:19:11;;;;;;;3.70;3.40;;;;;;;16.22;100.00;100849.44;107114;1254;73537;-92
2023/05/22 03:21:38;;;;;;;4.70;3.70;;;;;;;16.25;100.00;100847.96;107654;1253;62930;-93
2023/05/22 03:24:06;;;;;;;7.60;3.70;;;;;;;16.29;100.00;100848.54;109379;1253;62282;-92
2023/05/22 03:26:33;;;;;;;9.10;3.40;;;;;;;16.34;100.00;100852.02;109283;1253;73878;-88
2023/05/22 03:29:03;;;;;;;4.70;4.00;;;;;;;16.35;100.00;100851.58;106834;1254;64779;-95
2023/05/22 03:31:31;;;;;;;6.40;3.90;;;;;;;16.34;100.00;100850.91;106302;1253;75049;-95
2023/05/22 03:34:07;;;;;;;4.50;3.70;;;;;;;16.36;100.00;100852.16;106373;1253;63134;-91
2023/05/22 03:36:35;;;;;;;6.90;4.20;;;;;;;16.41;100.00;100846.15;106939;1253;61205;-92
2023/05/22 03:39:03;;;;;;;4.50;3.90;;;;;;;16.45;100.00;100845.25;106560;1253;73655;-89
2023/05/22 03:41:33;;;;;;;10.10;7.60;;;;;;;16.50;100.00;100845.96;106232;1253;65662;-90
2023/05/22 03:44:02;;;;;;;24.00;18.20;;;;;;;16.51;100.00;100840.92;106275;1253;74704;-88
2023/05/22 03:46:29;;;;;;;8.70;4.90;;;;;;;16.51;100.00;100844.94;106082;1254;61839;-88
2023/05/22 03:49:02;;;;;;;18.70;16.80;;;;;;;16.54;100.00;100840.86;107054;1253;60227;-88
2023/05/22 03:51:30;;;;;;;4.20;3.80;;;;;;;16.55;100.00;100839.67;108854;1253;73839;-89
2023/05/22 03:53:57;;;;;;;5.00;3.90;;;;;;;16.57;100.00;100837.41;109557;1253;64773;-89
2023/05/22 03:56:25;;;;;;;4.20;3.80;;;;;;;16.60;100.00;100835.24;109323;1253;73463;-89
2023/05/22 03:58:52;;;;;;;5.80;4.30;;;;;;;16.65;100.00;100835.20;105845;1261;62945;-89
2023/05/22 04:01:21;;;;;;;8.70;4.40;;;;;;;16.69;100.00;100834.70;106166;1253;62451;-90
2023/05/22 04:03:48;;;;;;;6.60;5.30;;;;;;;16.72;100.00;100832.84;105976;1253;73706;-89
2023/05/22 04:06:16;;;;;;;5.70;3.90;;;;;;;16.79;100.00;100834.60;106073;1258;64759;-92
2023/05/22 04:08:44;;;;;;;4.50;3.60;;;;;;;16.85;100.00;100840.64;106195;1253;74537;-91
2023/05/22 04:11:14;;;;;;;7.10;6.40;;;;;;;16.90;100.00;100841.59;106045;1255;62867;-89
2023/05/22 04:13:42;;;;;;;4.10;3.80;;;;;;;16.96;100.00;100842.36;106215;1253;61280;-90
2023/05/22 04:16:09;;;;;;;8.80;3.90;;;;;;;17.00;100.00;100839.39;106131;1253;74963;-90
2023/05/22 04:18:36;;;;;;;4.80;3.90;;;;;;;17.06;100.00;100837.52;105763;1253;65722;-90
2023/05/22 04:21:06;;;;;;;6.00;4.10;;;;;;;17.09;100.00;100843.35;105934;1253;73757;-89
2023/05/22 04:23:34;;;;;;;4.60;4.00;;;;;;;17.14;100.00;100846.14;106113;1255;62756;-90
2023/05/22 04:26:07;;;;;;;4.80;4.20;;;;;;;17.18;100.00;100849.38;106096;1253;59747;-89
2023/05/22 04:28:34;;;;;;;6.50;4.30;;;;;;;17.21;100.00;100846.30;106036;1253;73838;-89
2023/05/22 04:31:05;;;;;;;5.70;5.00;;;;;;;17.23;100.00;100847.90;106147;1260;65954;-90
2023/05/22 04:33:33;;;;;;;5.90;4.80;;;;;;;17.24;100.00;100842.36;107393;1253;73884;-88
2023/05/22 04:36:01;;;;;;;6.50;4.20;;;;;;;17.25;100.00;100845.91;106460;1254;62863;-88
2023/05/22 04:38:35;;;;;;;7.60;5.00;;;;;;;17.26;100.00;100846.05;106786;1253;61093;-88
2023/05/22 04:41:02;;;;;;;3.90;3.60;;;;;;;17.30;100.00;100840.78;106597;1258;74869;-91
2023/05/22 04:43:32;;;;;;;4.60;3.70;;;;;;;17.34;100.00;100839.02;106497;1255;64688;-91
2023/05/22 04:45:59;;;;;;;6.70;3.50;;;;;;;17.39;100.00;100835.02;106683;1253;74734;-92
2023/05/22 04:48:27;;;;;;;7.20;4.20;;;;;;;17.48;100.00;100837.95;106360;1253;64060;-91
2023/05/22 04:50:56;;;;;;;7.50;4.00;;;;;;;17.57;100.00;100837.92;106649;1253;62243;-90
2023/05/22 04:53:23;;;;;;;5.70;4.20;;;;;;;17.68;100.00;100835.40;106626;1253;75274;-90
2023/05/22 04:55:52;;;;;;;6.00;3.90;;;;;;;17.78;100.00;100835.54;106255;1253;64942;-91
2023/05/22 04:58:20;;;;;;;5.70;3.70;;;;;;;17.86;100.00;100837.55;106596;1254;73310;-88
2023/05/22 05:00:48;;;;;;;6.00;4.00;;;;;;;17.91;100.00;100837.29;106285;1261;61196;-89
2023/05/22 05:03:15;;;;;;;6.30;3.90;;;;;;;17.92;100.00;100835.97;106977;1253;62330;-92
2023/05/22 05:05:43;;;;;;;7.30;3.70;;;;;;;17.95;100.00;100837.84;106390;1253;73182;-87
2023/05/22 05:08:15;;;;;;;4.40;3.80;;;;;;;18.01;100.00;100836.56;106210;1253;64448;-89
2023/05/22 05:10:42;;;;;;;9.10;8.00;;;;;;;18.09;100.00;100839.80;106315;1253;73559;-90
2023/05/22 05:13:09;;;;;;;17.40;12.20;;;;;;;18.16;100.00;100840.63;106641;1253;61125;-87
2023/05/22 05:15:38;;;;;;;4.00;3.60;;;;;;;18.24;100.00;100837.26;107981;1253;61987;-91
2023/05/22 05:18:05;;;;;;;5.80;4.10;;;;;;;18.36;100.00;100840.20;106872;1253;75480;-91
2023/05/22 05:20:33;;;;;;;13.20;10.10;;;;;;;18.46;100.00;100834.59;106575;1253;65182;-90
2023/05/22 05:23:01;;;;;;;5.40;4.50;;;;;;;18.58;100.00;100838.64;106800;1253;73628;-93
2023/05/22 05:25:28;;;;;;;5.70;4.60;;;;;;;18.63;100.00;100836.92;106797;1256;61268;-91
2023/05/22 05:27:56;;;;;;;4.00;3.70;;;;;;;18.68;100.00;100836.12;107183;1260;61626;-90
2023/05/22 05:30:23;;;;;;;6.10;4.20;;;;;;;18.68;100.00;100835.63;107989;1253;75155;-92
2023/05/22 05:33:18;;;;;;;4.70;4.30;;;;;;;18.67;100.00;100834.27;108419;1259;65055;-88
2023/05/22 05:36:10;;;;;;;7.10;3.70;;;;;;;18.65;100.00;100835.14;108191;1266;73587;-90
2023/05/22 05:38:42;;;;;;;5.30;3.90;;;;;;;18.68;100.00;100831.88;107501;1259;62810;-88
2023/05/22 05:41:13;;;;;;;7.70;4.30;;;;;;;18.74;100.00;100829.92;108067;1259;61079;-90
2023/05/22 05:43:40;;;;;;;4.90;4.30;;;;;;;18.83;100.00;100830.52;106836;1259;73909;-90
2023/05/22 05:46:11;;;;;;;6.40;4.80;;;;;;;18.95;100.00;100830.33;106303;1265;66064;-92
2023/05/22 05:48:40;;;;;;;5.30;4.70;;;;;;;19.07;100.00;100829.20;106313;1259;73473;-92
2023/05/22 05:51:07;;;;;;;5.80;4.30;;;;;;;19.17;100.00;100832.34;106670;1259;61001;-91
2023/05/22 05:53:39;;;;;;;9.20;4.00;;;;;;;19.23;99.79;100830.52;106664;1266;63100;-90
2023/05/22 05:56:07;;;;;;;6.00;4.40;;;;;;;19.26;99.08;100831.16;107742;1259;74482;-88
2023/05/22 05:58:36;;;;;;;5.40;3.80;;;;;;;19.23;98.59;100830.53;106499;1262;64821;-90
2023/05/22 06:01:43;;;;;;;9.30;3.50;;;;;;;19.19;98.63;100830.05;106856;1259;73224;-88
2023/05/22 06:04:17;;;;;;;6.00;4.20;;;;;;;19.16;98.56;100830.37;107408;1259;61283;-91
2023/05/22 06:06:46;;;;;;;4.40;4.00;;;;;;;19.13;98.82;100828.71;107393;1263;61031;-89
2023/05/22 06:09:14;;;;;;;5.20;3.90;;;;;;;19.11;98.66;100829.77;106741;1266;73857;-89
2023/05/22 06:12:00;;;;;;;4.80;4.10;;;;;;;19.00;98.63;100821.73;107030;1253;64821;-88
2023/05/22 06:14:27;;;;;;;5.80;4.00;;;;;;;18.96;98.86;100824.05;106547;1253;74630;-89
2023/05/22 06:16:55;;;;;;;4.90;4.50;;;;;;;18.92;99.05;100828.63;106407;1258;62384;-88
2023/05/22 06:19:22;;;;;;;4.90;3.80;;;;;;;18.90;99.15;100830.61;106562;1258;62256;-89
2023/05/22 06:21:52;;;;;;;4.50;4.10;;;;;;;18.86;99.05;100832.77;106951;1257;75200;-90
2023/05/22 06:24:20;;;;;;;6.60;3.90;;;;;;;18.83;99.13;100833.35;108164;1253;64704;-86
2023/05/22 06:26:47;;;;;;;4.80;4.30;;;;;;;18.81;99.20;100833.50;107629;1253;74947;-90
2023/05/22 06:29:15;;;;;;;5.60;3.70;;;;;;;18.81;99.41;100836.89;108135;1254;62915;-91
2023/05/22 06:31:51;;;;;;;6.70;4.70;;;;;;;18.82;99.45;100840.15;107978;1253;60886;-89
2023/05/22 06:34:21;;;;;;;5.20;4.70;;;;;;;18.84;99.49;100844.04;109203;1253;73935;-86
2023/05/22 06:37:00;;;;;;;7.60;4.60;;;;;;;18.85;99.62;100836.91;108840;1253;62096;-89
2023/05/22 06:39:33;;;;;;;5.10;4.60;;;;;;;18.91;99.65;100837.08;108105;1254;73621;-93
2023/05/22 06:42:20;;;;;;;6.70;4.60;;;;;;;18.90;99.01;100826.70;106588;1253;61443;-94
2023/05/22 06:45:20;;;;;;;7.40;4.90;;;;;;;18.94;99.63;100827.56;107349;1253;61248;-89
2023/05/22 06:48:00;;;;;;;14.50;5.40;;;;;;;19.09;99.77;100823.34;107445;1253;73479;-88
2023/05/22 06:50:30;;;;;;;5.60;4.60;;;;;;;19.27;99.77;100819.16;106717;1259;64883;-90
2023/05/22 06:52:57;;;;;;;4.50;4.00;;;;;;;19.52;99.09;100824.70;106551;1253;72717;-91
2023/05/22 06:55:24;;;;;;;4.00;3.40;;;;;;;19.81;98.34;100824.05;106713;1253;60534;-90
2023/05/22 06:58:01;;;;;;;4.90;4.20;;;;;;;20.15;96.32;100823.59;106506;1253;62288;-90
2023/05/22 07:00:29;;;;;;;5.40;4.60;;;;;;;20.52;95.59;100822.35;106592;1254;74428;-90
2023/05/22 07:03:05;;;;;;;22.80;18.50;;;;;;;20.95;94.43;100825.04;106927;1253;65896;-91
2023/05/22 07:05:55;;;;;;;6.90;5.40;;;;;;;21.37;92.25;100822.89;106969;1257;73892;-94
2023/05/22 07:08:22;;;;;;;9.90;8.30;;;;;;;21.60;89.66;100822.69;107168;1253;61309;-90
2023/05/22 07:10:50;;;;;;;5.90;4.50;;;;;;;21.71;88.08;100826.63;107384;1253;62058;-90
2023/05/22 07:13:22;;;;;;;5.70;4.40;;;;;;;21.82;87.56;100820.02;107053;1253;76066;-91
2023/05/22 07:18:49;;;;;;;5.20;4.20;;;;;;;22.23;86.16;100821.77;104278;1289;612193;-89
2023/05/22 07:21:22;;;;;;;;;;;;;;;22.52;85.65;100822.66;107664;1265;60667;-89
2023/05/22 07:23:51;;;;;;;7.00;3.90;;;;;;;22.76;85.41;100819.17;107506;1267;61003;-94
2023/05/22 07:26:28;;;;;;;5.00;3.60;;;;;;;23.09;84.05;100819.48;107391;1267;71369;-94
2023/05/22 07:29:06;;;;;;;4.30;3.80;;;;;;;23.48;82.43;100818.61;108666;1257;63494;-93
2023/05/22 07:31:37;;;;;;;4.40;3.70;;;;;;;23.84;81.17;100812.36;108206;1258;786516;-95
2023/05/22 07:34:44;;;;;;;4.80;4.20;;;;;;;24.21;78.33;100813.94;108399;1257;60291;-94
2023/05/22 07:38:05;;;;;;;6.50;4.40;;;;;;;24.39;76.35;100813.55;108200;1263;60272;-94
2023/05/22 07:40:34;;;;;;;4.30;3.80;;;;;;;24.36;75.92;100814.81;107838;1260;71416;-92
2023/05/22 07:43:06;;;;;;;5.30;4.20;;;;;;;24.34;75.50;100817.27;107583;1260;63577;-96
2023/05/22 07:45:39;;;;;;;4.20;3.60;;;;;;;24.27;75.13;100815.17;107204;1259;72649;-94
2023/05/22 07:48:08;;;;;;;5.30;3.90;;;;;;;24.28;76.49;100814.56;107030;1259;60537;-94
2023/05/22 07:50:36;;;;;;;5.60;4.00;;;;;;;24.41;76.74;100811.27;107597;1260;59619;-92
2023/05/22 07:53:05;;;;;;;7.00;3.90;;;;;;;24.59;76.04;100812.55;106872;1265;72986;-93
2023/05/22 07:55:33;;;;;;;6.20;3.40;;;;;;;24.79;75.56;100810.77;107159;1265;64918;-91
2023/05/22 07:58:02;;;;;;;4.50;3.70;;;;;;;25.05;75.50;100811.15;108264;1265;72908;-90
2023/05/22 08:00:34;;;;;;;4.30;3.80;;;;;;;25.29;75.63;100811.84;108256;1258;60328;-90
2023/05/22 08:03:14;;;;;;;11.40;7.40;;;;;;;25.55;75.19;100812.79;108623;1252;61389;-91
2023/05/22 08:05:45;;;;;;;7.90;4.60;;;;;;;25.74;73.54;100816.50;107669;1254;72892;-93
2023/05/22 08:08:13;;;;;;;10.00;7.20;;;;;;;25.85;71.08;100817.48;107534;1255;65170;-93
2023/05/22 08:10:40;;;;;;;4.80;4.30;;;;;;;26.00;69.12;100816.58;107125;1258;72804;-90
2023/05/22 08:13:28;;;;;;;4.90;3.50;;;;;;;26.10;68.03;100815.70;106465;1257;59736;-91
2023/05/22 08:15:55;;;;;;;5.10;4.60;;;;;;;26.15;68.14;100816.30;106931;1254;60379;-89
2023/05/22 08:18:29;;;;;;;;;;;;;;;26.14;66.36;100810.17;107264;1256;73305;-92
2023/05/22 08:20:59;;;;;;;5.20;3.90;;;;;;;26.03;67.10;100810.38;106890;1257;64689;-90
2023/05/22 08:23:28;;;;;;;4.10;3.30;;;;;;;25.97;66.59;100806.63;107155;1257;73691;-90
2023/05/22 08:25:57;;;;;;;3.70;3.40;;;;;;;25.88;67.52;100807.79;107046;1254;60349;-92
2023/05/22 08:28:24;;;;;;;4.60;3.00;;;;;;;25.85;69.21;100806.53;106721;1259;61243;-92
2023/05/22 08:30:53;;;;;;;6.90;3.50;;;;;;;25.91;68.60;100805.27;107212;1255;73351;-89
2023/05/22 08:33:21;;;;;;;3.70;3.00;;;;;;;25.88;67.36;100799.38;108014;1254;63921;-89
2023/05/22 08:35:49;;;;;;;6.90;3.10;;;;;;;25.90;67.69;100801.52;108884;1254;72345;-90
2023/05/22 08:38:16;;;;;;;5.10;2.60;;;;;;;25.96;67.61;100804.54;108046;1256;60806;-93
2023/05/22 08:40:46;;;;;;;6.00;3.40;;;;;;;25.96;66.10;100806.48;107076;1254;60443;-92
2023/05/22 08:43:27;;;;;;;5.00;3.00;;;;;;;26.02;67.17;100805.86;108563;1254;73744;-95
2023/05/22 08:46:14;;;;;;;3.10;2.90;;;;;;;26.20;66.71;100799.48;107872;1257;65354;-94
2023/05/22 08:48:46;;;;;;;3.40;3.00;;;;;;;26.40;67.68;100801.92;108498;1254;73254;-93
2023/05/22 08:51:14;;;;;;;11.90;5.60;;;;;;;26.57;66.31;100798.34;108265;1257;60997;-90
2023/05/22 08:53:41;;;;;;;9.10;7.40;;;;;;;26.78;63.41;100801.88;107251;1258;61247;-90
2023/05/22 08:56:09;;;;;;;6.90;4.30;;;;;;;27.00;63.16;100800.45;107485;1254;73038;-91
2023/05/22 08:58:36;;;;;;;6.00;3.20;;;;;;;27.21;60.68;100800.93;107415;1254;64674;-93
2023/05/22 09:01:04;;;;;;;7.10;3.10;;;;;;;27.41;60.44;100801.20;106953;1254;72672;-89
2023/05/22 09:03:33;;;;;;;3.70;2.80;;;;;;;27.67;56.44;100799.63;106882;1254;61347;-91
2023/05/22 09:06:03;;;;;;;3.20;3.00;;;;;;;27.84;55.37;100797.60;106835;1260;61698;-90
2023/05/22 09:08:30;;;;;;;3.10;2.50;;;;;;;28.09;53.16;100795.45;106991;1252;72948;-92
2023/05/22 09:10:58;;;;;;;4.80;3.10;;;;;;;28.46;51.77;100790.62;106855;1253;64231;-91
2023/05/22 09:13:30;;;;;;;8.10;2.80;;;;;;;28.82;50.38;100790.03;106573;1254;73935;-89
2023/05/22 09:15:58;;;;;;;4.00;2.70;;;;;;;29.15;47.37;100785.65;106903;1254;60629;-91
2023/05/22 09:18:28;;;;;;;6.60;3.40;;;;;;;29.58;46.88;100786.80;107165;1256;60312;-90
2023/05/22 09:20:59;;;;;;;3.10;2.40;;;;;;;30.00;45.15;100784.67;107092;1256;74354;-89
2023/05/22 09:23:26;;;;;;;7.00;3.40;;;;;;;30.28;43.37;100783.45;107583;1256;64736;-90
2023/05/22 09:25:58;;;;;;;5.90;2.30;;;;;;;30.39;41.81;100784.26;108762;1253;72198;-91
2023/05/22 09:28:25;;;;;;;4.90;2.00;;;;;;;30.46;41.12;100779.71;107549;1258;61550;-89
2023/05/22 09:30:57;;;;;;;6.00;2.40;;;;;;;30.43;40.98;100777.95;107129;1255;60379;-91
2023/05/22 09:33:28;;;;;;;4.30;2.10;;;;;;;30.34;40.96;100773.42;106776;1255;75426;-91
2023/05/22 09:35:55;;;;;;;5.00;3.10;;;;;;;30.38;41.23;100772.86;107073;1257;63882;-89
2023/05/22 09:38:28;;;;;;;3.60;2.60;;;;;;;30.40;41.36;100771.13;107000;1257;71897;-90
2023/05/22 09:40:56;;;;;;;3.10;2.00;;;;;;;30.38;39.52;100770.35;108567;1254;61173;-90
2023/05/22 09:43:26;;;;;;;4.50;2.00;;;;;;;30.23;39.04;100767.66;108647;1253;61884;-90
2023/05/22 09:45:59;;;;;;;3.10;2.40;;;;;;;30.10;39.39;100764.77;109193;1254;73031;-88
2023/05/22 09:48:27;;;;;;;4.90;2.10;;;;;;;30.12;40.52;100760.67;109641;1252;63628;-89
2023/05/22 09:50:54;;;;;;;2.50;2.30;;;;;;;30.19;39.83;100756.96;108112;1256;71595;-91
2023/05/22 09:53:25;;;;;;;2.70;2.20;;;;;;;30.34;39.70;100760.30;106485;1257;61308;-89
2023/05/22 09:55:55;;;;;;;2.00;1.80;;;;;;;30.49;39.91;100757.95;107422;1257;60323;-90
2023/05/22 09:58:23;;;;;;;7.40;5.90;;;;;;;30.53;39.24;100753.80;107127;1253;72587;-90
2023/05/22 10:00:50;;;;;;;21.00;18.80;;;;;;;30.47;38.62;100750.47;107060;1259;65169;-92
2023/05/22 10:03:17;;;;;;;6.20;3.70;;;;;;;30.39;39.50;100749.11;108045;1254;73685;-89
2023/05/22 10:05:47;;;;;;;75.80;67.70;;;;;;;30.29;39.76;100746.69;107864;1253;60358;-91
2023/05/22 10:08:16;;;;;;;7.50;4.90;;;;;;;30.18;38.96;100742.38;108662;1254;59962;-90
2023/05/22 10:10:46;;;;;;;7.00;5.80;;;;;;;30.17;38.91;100741.39;107328;1259;72980;-91
2023/05/22 10:13:16;;;;;;;7.00;2.70;;;;;;;30.24;38.76;100734.75;107311;1257;65285;-88
2023/05/22 10:15:44;;;;;;;6.60;5.60;;;;;;;30.36;38.45;100734.73;107262;1256;73222;-90
2023/05/22 10:18:12;;;;;;;6.80;5.30;;;;;;;30.46;37.74;100730.58;107054;1254;61502;-89
2023/05/22 10:20:39;;;;;;;7.10;3.30;;;;;;;30.47;37.23;100726.16;106960;1257;60274;-89
2023/05/22 10:23:08;;;;;;;2.50;1.90;;;;;;;30.46;37.25;100722.25;106520;1260;74356;-90
2023/05/22 10:25:38;;;;;;;3.70;2.70;;;;;;;30.43;37.21;100722.44;106760;1256;64934;-90
2023/05/22 10:28:06;;;;;;;3.10;2.10;;;;;;;30.35;37.18;100718.20;106351;1259;71680;-92
2023/05/22 10:30:36;;;;;;;5.40;2.40;;;;;;;30.42;37.30;100719.29;106800;1254;60688;-92
2023/05/22 10:33:24;;;;;;;8.30;1.90;;;;;;;30.55;35.74;100716.58;107299;1253;60313;-90
2023/05/22 10:36:18;;;;;;;11.20;2.70;;;;;;;30.62;35.78;100715.16;106707;1258;72904;-92
2023/05/22 10:38:54;;;;;;;4.10;2.30;;;;;;;30.47;35.45;100710.04;106319;1260;63800;-89
2023/05/22 10:41:22;;;;;;;5.90;2.30;;;;;;;30.23;35.82;100705.88;106126;1260;72609;-90
2023/05/22 10:43:49;;;;;;;3.50;2.30;;;;;;;30.01;36.90;100701.04;106234;1263;61398;-90
2023/05/22 10:46:17;;;;;;;5.20;2.00;;;;;;;29.80;37.67;100701.09;106301;1261;60366;-90
2023/05/22 10:48:45;;;;;;;4.10;2.00;;;;;;;29.53;36.51;100700.44;107230;1260;72826;-89
2023/05/22 10:51:14;;;;;;;4.00;1.60;;;;;;;29.26;37.22;100694.00;107154;1263;64582;-91
2023/05/22 10:53:44;;;;;;;4.40;1.80;;;;;;;29.10;37.61;100694.53;106735;1260;73774;-93
2023/05/22 10:56:13;;;;;;;5.30;2.40;;;;;;;28.98;37.88;100691.02;107251;1263;61303;-92
2023/05/22 10:58:45;;;;;;;4.30;2.30;;;;;;;28.85;38.02;100686.98;108207;1260;60509;-91
2023/05/22 11:01:17;;;;;;;5.30;1.80;;;;;;;28.79;38.07;100682.30;108651;1260;72889;-86
2023/05/22 11:04:00;;;;;;;5.10;1.80;;;;;;;28.84;38.09;100680.45;108020;1260;63802;-89
2023/05/22 11:06:44;;;;;;;3.70;1.80;;;;;;;29.03;37.71;100678.55;107699;1260;72792;-90
2023/05/22 11:09:29;;;;;;;3.10;2.10;;;;;;;29.33;36.53;100676.81;107364;1259;60982;-90
2023/05/22 11:12:23;;;;;;;4.70;1.30;;;;;;;29.60;36.32;100675.48;106572;1260;60360;-93
2023/05/22 11:15:05;;;;;;;7.20;2.30;;;;;;;29.85;35.85;100675.55;106666;1264;74092;-91
2023/05/22 11:17:37;;;;;;;1.70;1.30;;;;;;;30.00;35.37;100675.45;106908;1255;64845;-88
2023/05/22 11:20:10;;;;;;;5.30;1.60;;;;;;;29.97;35.19;100674.85;106892;1254;74218;-94
2023/05/22 11:22:40;;;;;;;3.80;1.30;;;;;;;29.87;36.00;100675.33;106795;1253;61148;-87
2023/05/22 11:25:09;;;;;;;5.30;1.90;;;;;;;29.79;35.79;100675.73;106722;1255;60190;-88
2023/05/22 11:27:40;;;;;;;3.10;1.90;;;;;;;29.75;36.35;100673.80;107046;1254;73394;-93
2023/05/22 11:32:28;;;;;;;1.70;1.60;;;;;;;29.58;35.66;100669.98;105465;1284;612517;-91
2023/05/22 11:34:56;;;;;;;2.10;1.70;;;;;;;29.22;35.80;100670.20;106441;1264;60503;-90
2023/05/22 11:37:23;;;;;;;2.30;1.70;;;;;;;28.87;36.21;100668.90;105757;1264;59615;-89
2023/05/22 11:39:54;;;;;;;2.50;1.80;;;;;;;28.55;37.34;100671.29;105752;1262;73291;-90
2023/05/22 11:42:21;;;;;;;3.40;2.10;;;;;;;28.24;37.48;100667.03;106422;1254;64788;-91
2023/05/22 11:44:49;;;;;;;8.60;2.10;;;;;;;27.86;37.25;100664.17;105654;1259;999578;-90
2023/05/22 11:47:17;;;;;;;3.70;1.70;;;;;;;27.47;38.76;100664.51;106801;1252;61616;-90
2023/05/22 11:49:44;;;;;;;5.70;1.60;;;;;;;27.14;39.52;100660.95;106547;1252;60222;-87
2023/05/22 11:52:11;;;;;;;4.20;2.10;;;;;;;26.90;40.74;100656.55;106537;1254;72351;-89
2023/05/22 11:54:38;;;;;;;4.90;1.80;;;;;;;26.78;41.39;100650.04;106827;1254;65617;-91
2023/05/22 11:57:07;;;;;;;4.00;2.10;;;;;;;26.67;42.43;100651.95;107795;1253;73953;-91